createdAt,value
2019-04-05T00:01:57.026Z,6.90
2019-04-05T00:04:26.892Z,6.96
2019-04-05T00:06:56.703Z,6.95
2019-04-05T00:09:26.447Z,6.98
2019-04-05T00:11:56.348Z,7.00
2019-04-05T00:14:26.263Z,6.95
2019-04-05T00:16:57.336Z,6.79
2019-04-05T00:19:27.153Z,6.76
2019-04-05T00:21:56.929Z,6.65
2019-04-05T00:24:26.882Z,6.64
2019-04-05T00:26:56.580Z,6.56
2019-04-05T00:29:26.281Z,6.51
2019-04-05T00:31:56.160Z,6.46
2019-04-05T00:34:25.997Z,6.50
2019-04-05T00:36:55.936Z,6.43
2019-04-05T00:39:25.758Z,6.47
2019-04-05T00:41:55.709Z,6.34
2019-04-05T00:44:25.602Z,6.36
2019-04-05T00:46:55.609Z,6.25
2019-04-05T00:49:25.535Z,6.18
2019-04-05T00:51:55.565Z,6.24
2019-04-05T00:54:25.505Z,6.23
2019-04-05T00:56:55.274Z,6.25
2019-04-05T00:59:25.090Z,6.20
2019-04-05T01:01:54.934Z,6.21
2019-04-05T01:04:24.716Z,6.14
2019-04-05T01:06:54.611Z,6.15
2019-04-05T01:09:24.562Z,6.02
2019-04-05T01:11:54.458Z,6.12
2019-04-05T01:14:26.387Z,6.06
2019-04-05T01:16:56.637Z,6.02
2019-04-05T01:19:29.220Z,5.92
2019-04-05T01:22:02.799Z,5.99
2019-04-05T01:24:32.739Z,5.94
2019-04-05T01:27:04.186Z,5.95
2019-04-05T01:29:34.174Z,6.02
2019-04-05T01:32:04.036Z,5.87
2019-04-05T01:34:33.957Z,5.92
2019-04-05T01:37:03.870Z,5.85
2019-04-05T01:39:33.788Z,5.94
2019-04-05T01:42:03.707Z,5.90
2019-04-05T01:44:33.773Z,5.77
2019-04-05T01:47:03.627Z,5.10
2019-04-05T01:49:33.544Z,4.57
2019-04-05T01:52:03.758Z,4.12
2019-04-05T01:54:33.596Z,3.90
2019-04-05T01:57:03.619Z,3.71
2019-04-05T01:59:33.466Z,3.52
2019-04-05T02:02:03.337Z,3.35
2019-04-05T02:04:33.150Z,3.55
2019-04-05T02:07:02.888Z,3.84
2019-04-05T02:09:33.319Z,4.08
2019-04-05T02:12:03.155Z,4.02
2019-04-05T02:14:33.119Z,4.23
2019-04-05T02:17:03.145Z,4.50
2019-04-05T02:19:33.019Z,4.53
2019-04-05T02:22:02.866Z,4.71
2019-04-05T02:24:33.921Z,4.77
2019-04-05T02:27:03.887Z,4.86
2019-04-05T02:29:33.761Z,4.94
2019-04-05T02:32:03.678Z,4.99
2019-04-05T02:34:33.746Z,4.98
2019-04-05T02:37:03.630Z,5.00
2019-04-05T02:39:33.426Z,5.01
2019-04-05T02:42:03.997Z,5.07
2019-04-05T02:44:34.583Z,5.06
2019-04-05T02:47:05.209Z,4.84
2019-04-05T02:49:36.063Z,4.89
2019-04-05T02:52:06.366Z,4.79
2019-04-05T02:54:36.990Z,4.44
2019-04-05T02:57:07.304Z,4.21
2019-04-05T02:59:37.553Z,4.16
2019-04-05T03:02:08.485Z,4.02
2019-04-05T03:04:39.275Z,3.85
2019-04-05T03:07:09.263Z,3.68
2019-04-05T03:09:39.382Z,3.64
2019-04-05T03:12:09.542Z,3.52
2019-04-05T03:14:40.111Z,3.55
2019-04-05T03:17:11.971Z,3.68
2019-04-05T03:19:43.884Z,3.84
2019-04-05T03:22:15.038Z,3.92
2019-04-05T03:24:46.989Z,4.05
2019-04-05T03:27:25.031Z,4.17
2019-04-05T03:29:55.145Z,4.21
2019-04-05T03:32:26.334Z,4.15
2019-04-05T03:34:57.184Z,4.22
2019-04-05T03:37:27.153Z,4.31
2019-04-05T03:39:57.145Z,4.31
2019-04-05T03:42:27.464Z,4.41
2019-04-05T03:44:57.647Z,4.49
2019-04-05T03:47:27.597Z,4.50
2019-04-05T03:49:58.111Z,4.59
2019-04-05T03:52:28.212Z,4.66
2019-04-05T03:54:58.056Z,4.65
2019-04-05T03:57:28.069Z,4.69
2019-04-05T03:59:58.142Z,4.75
2019-04-05T04:02:28.037Z,4.66
2019-04-05T04:04:57.876Z,4.56
2019-04-05T04:07:27.793Z,4.43
2019-04-05T04:09:57.760Z,4.46
2019-04-05T04:12:28.117Z,4.45
2019-04-05T04:15:14.251Z,4.64
2019-04-05T04:17:46.433Z,4.60
2019-04-05T04:20:32.587Z,4.71
2019-04-05T04:23:02.493Z,4.76
2019-04-05T04:25:32.530Z,4.77
2019-04-05T04:28:02.713Z,4.95
2019-04-05T04:30:33.554Z,4.99
2019-04-05T04:33:03.849Z,5.05
2019-04-05T04:35:33.812Z,4.98
2019-04-05T04:38:03.699Z,5.22
2019-04-05T04:40:34.590Z,5.25
2019-04-05T04:43:04.715Z,4.95
2019-04-05T04:45:34.886Z,4.61
2019-04-05T04:48:05.978Z,4.39
2019-04-05T04:50:36.802Z,4.74
2019-04-05T04:53:07.528Z,4.69
2019-04-05T04:55:37.880Z,4.67
2019-04-05T04:58:07.870Z,4.98
2019-04-05T05:00:37.989Z,4.69
2019-04-05T05:03:08.055Z,4.34
2019-04-05T05:05:37.917Z,4.20
2019-04-05T05:08:08.528Z,4.24
2019-04-05T05:10:38.713Z,4.08
2019-04-05T05:13:09.194Z,4.04
2019-04-05T05:15:39.004Z,4.27
2019-04-05T05:18:09.254Z,4.32
2019-04-05T05:20:39.158Z,4.44
2019-04-05T05:23:09.122Z,4.78
2019-04-05T05:25:39.062Z,4.64
2019-04-05T05:28:09.129Z,5.02
2019-04-05T05:30:39.180Z,5.21
2019-04-05T05:33:10.495Z,5.27
2019-04-05T05:35:40.744Z,5.32
2019-04-05T05:38:12.354Z,5.45
2019-04-05T05:40:41.997Z,5.61
2019-04-05T05:43:11.829Z,5.75
2019-04-05T05:45:41.824Z,6.06
2019-04-05T05:48:11.726Z,6.13
2019-04-05T05:50:41.797Z,5.87
2019-04-05T05:53:11.557Z,6.00
2019-04-05T05:55:41.278Z,6.10
2019-04-05T05:58:11.248Z,6.28
2019-04-05T06:00:41.061Z,6.18
2019-04-05T06:03:11.866Z,6.22
2019-04-05T06:05:41.750Z,6.32
2019-04-05T06:08:11.642Z,6.36
2019-04-05T06:10:41.555Z,6.57
2019-04-05T06:13:11.672Z,6.58
2019-04-05T06:15:41.425Z,6.56
2019-04-05T06:18:12.675Z,6.74
2019-04-05T06:20:42.818Z,7.19
2019-04-05T06:23:13.849Z,7.25
2019-04-05T06:25:43.558Z,7.38
2019-04-05T06:28:13.453Z,7.63
2019-04-05T06:30:43.465Z,7.71
2019-04-05T06:33:13.210Z,8.27
2019-04-05T06:35:43.002Z,8.58
2019-04-05T06:38:14.095Z,8.86
2019-04-05T06:40:43.964Z,9.16
2019-04-05T06:43:13.881Z,9.32
2019-04-05T06:45:43.864Z,9.55
2019-04-05T06:48:19.497Z,9.77
2019-04-05T06:50:47.335Z,10.06
2019-04-05T06:53:17.878Z,10.21
2019-04-05T06:55:47.663Z,10.17
2019-04-05T06:58:20.600Z,10.24
2019-04-05T07:00:56.972Z,10.36
2019-04-05T07:03:20.606Z,10.39
2019-04-05T07:05:50.510Z,10.52
2019-04-05T07:08:20.491Z,10.74
2019-04-05T07:10:50.345Z,10.70
2019-04-05T07:13:20.249Z,10.79
2019-04-05T07:15:50.126Z,11.02
2019-04-05T07:18:32.648Z,10.97
2019-04-05T07:20:51.676Z,11.10
2019-04-05T07:23:21.611Z,11.19
2019-04-05T07:25:51.384Z,11.14
2019-04-05T07:28:21.305Z,11.08
2019-04-05T07:30:51.181Z,10.88
2019-04-05T07:33:21.011Z,10.87
2019-04-05T07:35:51.032Z,10.79
2019-04-05T07:38:20.762Z,10.87
2019-04-05T07:40:50.567Z,10.57
2019-04-05T07:43:20.328Z,10.86
2019-04-05T07:45:50.209Z,10.94
2019-04-05T07:48:20.110Z,10.84
2019-04-05T07:50:50.179Z,10.87
2019-04-05T07:53:19.948Z,10.97
2019-04-05T07:55:49.967Z,10.83
2019-04-05T07:58:19.861Z,10.93
2019-04-05T08:00:52.170Z,10.78
2019-04-05T08:03:23.091Z,11.03
2019-04-05T08:05:53.731Z,11.26
2019-04-05T08:08:51.606Z,11.02
2019-04-05T08:11:23.338Z,11.10
2019-04-05T08:13:55.307Z,11.08
2019-04-05T08:16:26.336Z,11.01
2019-04-05T08:18:57.949Z,11.19
2019-04-05T08:21:27.655Z,11.21
2019-04-05T08:23:58.708Z,11.21
2019-04-05T08:26:28.618Z,11.34
2019-04-05T08:28:58.518Z,11.22
2019-04-05T08:31:29.622Z,11.38
2019-04-05T08:33:59.415Z,11.43
2019-04-05T08:36:29.286Z,11.17
2019-04-05T08:38:58.944Z,11.43
2019-04-05T08:41:28.734Z,11.52
2019-04-05T08:43:58.806Z,11.41
2019-04-05T08:46:28.561Z,11.07
2019-04-05T08:49:10.033Z,11.28
2019-04-05T08:51:30.026Z,11.61
2019-04-05T08:53:59.857Z,11.42
2019-04-05T08:56:29.691Z,10.98
2019-04-05T08:58:59.357Z,11.21
2019-04-05T09:01:29.276Z,11.28
2019-04-05T09:03:59.241Z,11.38
2019-04-05T09:06:29.110Z,11.69
2019-04-05T09:08:58.959Z,11.70
2019-04-05T09:11:28.703Z,11.90
2019-04-05T09:13:58.348Z,11.91
2019-04-05T09:16:28.162Z,11.75
2019-04-05T09:18:57.934Z,11.91
2019-04-05T09:21:27.786Z,11.76
2019-04-05T09:23:59.221Z,11.69
2019-04-05T09:26:29.441Z,11.62
2019-04-05T09:28:59.078Z,11.93
2019-04-05T09:31:28.890Z,11.79
2019-04-05T09:33:58.760Z,11.93
2019-04-05T09:36:28.450Z,11.78
2019-04-05T09:38:58.236Z,11.76
2019-04-05T09:41:28.102Z,11.93
2019-04-05T09:43:58.065Z,11.61
2019-04-05T09:46:27.808Z,11.51
2019-04-05T09:48:57.611Z,11.36
2019-04-05T09:51:27.473Z,11.38
2019-04-05T09:53:57.337Z,11.49
2019-04-05T09:56:28.530Z,11.42
2019-04-05T09:58:58.302Z,11.47
2019-04-05T10:01:28.102Z,11.62
2019-04-05T10:03:57.868Z,11.76
2019-04-05T10:06:27.631Z,11.60
2019-04-05T10:08:57.345Z,11.69
2019-04-05T10:11:27.281Z,11.91
2019-04-05T10:13:57.058Z,11.67
2019-04-05T10:16:26.904Z,11.72
2019-04-05T10:18:56.601Z,11.81
2019-04-05T10:21:26.455Z,11.99
2019-04-05T10:23:56.326Z,11.83
2019-04-05T10:26:26.148Z,11.61
2019-04-05T10:28:55.941Z,11.94
2019-04-05T10:31:25.678Z,11.99
2019-04-05T10:33:56.732Z,11.78
2019-04-05T10:36:26.543Z,11.88
2019-04-05T10:38:56.444Z,11.86
2019-04-05T10:41:26.310Z,12.03
2019-04-05T10:43:58.467Z,11.86
2019-04-05T10:46:28.028Z,11.54
2019-04-05T10:48:58.012Z,11.63
2019-04-05T10:51:27.771Z,11.72
2019-04-05T10:53:57.593Z,11.90
2019-04-05T10:56:28.845Z,11.78
2019-04-05T10:58:58.546Z,12.08
2019-04-05T11:01:28.377Z,12.00
2019-04-05T11:03:58.297Z,12.06
2019-04-05T11:06:28.492Z,12.12
2019-04-05T11:08:58.265Z,12.02
2019-04-05T11:11:28.021Z,12.10
2019-04-05T11:13:58.110Z,11.89
2019-04-05T11:16:27.852Z,12.08
2019-04-05T11:18:57.719Z,11.99
2019-04-05T11:21:27.384Z,11.91
2019-04-05T11:23:57.314Z,11.58
2019-04-05T11:26:27.116Z,11.88
2019-04-05T11:28:56.925Z,11.99
2019-04-05T11:31:26.898Z,12.01
2019-04-05T11:33:56.825Z,11.88
2019-04-05T11:36:26.779Z,12.00
2019-04-05T11:38:57.157Z,11.62
2019-04-05T11:41:28.750Z,11.49
2019-04-05T11:44:01.426Z,11.72
2019-04-05T11:46:32.375Z,11.89
2019-04-05T11:49:04.430Z,11.80
2019-04-05T11:51:34.740Z,11.79
2019-04-05T11:54:04.803Z,11.69
2019-04-05T11:56:34.718Z,11.48
2019-04-05T11:59:06.894Z,11.81
2019-04-05T12:01:45.298Z,12.05
2019-04-05T12:04:15.191Z,12.04
2019-04-05T12:06:45.051Z,12.03
2019-04-05T12:09:15.042Z,12.12
2019-04-05T12:11:46.365Z,12.31
2019-04-05T12:14:29.330Z,12.41
2019-04-05T12:16:48.074Z,12.14
2019-04-05T12:19:17.909Z,12.11
2019-04-05T12:21:47.829Z,11.90
2019-04-05T12:24:17.690Z,12.09
2019-04-05T12:26:48.359Z,12.20
2019-04-05T12:29:18.122Z,12.50
2019-04-05T12:31:47.907Z,12.31
2019-04-05T12:34:21.529Z,12.12
2019-04-05T12:36:50.569Z,12.13
2019-04-05T12:39:20.919Z,12.14
2019-04-05T12:41:50.736Z,12.19
2019-04-05T12:44:20.608Z,11.81
2019-04-05T12:46:50.382Z,11.92
2019-04-05T12:49:20.198Z,12.30
2019-04-05T12:51:50.133Z,12.45
2019-04-05T12:54:20.024Z,12.57
2019-04-05T12:56:49.952Z,12.79
2019-04-05T12:59:19.750Z,12.76
2019-04-05T13:01:49.553Z,12.97
2019-04-05T13:04:21.311Z,13.89
2019-04-05T13:06:53.014Z,14.50
2019-04-05T13:09:23.535Z,14.25
2019-04-05T13:11:56.502Z,14.76
2019-04-05T13:14:26.482Z,14.49
2019-04-05T13:16:56.731Z,14.33
2019-04-05T13:19:28.546Z,14.40
2019-04-05T13:21:58.202Z,14.45
2019-04-05T13:24:27.957Z,14.11
2019-04-05T13:26:57.843Z,14.43
2019-04-05T13:29:27.681Z,14.06
2019-04-05T13:31:57.349Z,14.18
2019-04-05T13:34:27.297Z,13.96
2019-04-05T13:36:59.264Z,14.08
2019-04-05T13:39:29.697Z,14.29
2019-04-05T13:42:01.792Z,14.16
2019-04-05T13:44:32.453Z,14.44
2019-04-05T13:47:02.287Z,15.24
2019-04-05T13:49:32.223Z,14.91
2019-04-05T13:52:02.086Z,14.42
2019-04-05T13:54:31.953Z,14.58
2019-04-05T13:57:01.915Z,14.54
2019-04-05T13:59:32.041Z,14.94
2019-04-05T14:02:06.397Z,15.50
2019-04-05T14:04:33.706Z,15.42
2019-04-05T14:07:03.965Z,15.35
2019-04-05T14:09:33.818Z,15.63
2019-04-05T14:12:04.080Z,15.67
2019-04-05T14:14:33.837Z,15.28
2019-04-05T14:17:03.804Z,15.04
2019-04-05T14:19:33.678Z,14.36
2019-04-05T14:22:08.783Z,14.91
2019-04-05T14:24:36.707Z,15.04
2019-04-05T14:27:06.689Z,14.68
2019-04-05T14:29:36.398Z,14.25
2019-04-05T14:32:20.492Z,14.74
2019-04-05T14:34:37.684Z,14.40
2019-04-05T14:37:07.689Z,14.60
2019-04-05T14:39:38.784Z,14.53
2019-04-05T14:42:09.926Z,14.05
2019-04-05T14:44:41.792Z,14.42
2019-04-05T14:47:11.702Z,15.03
2019-04-05T14:49:41.496Z,15.14
2019-04-05T14:52:11.426Z,14.48
2019-04-05T14:54:43.287Z,14.43
2019-04-05T14:57:14.145Z,14.17
2019-04-05T14:59:43.940Z,14.01
2019-04-05T15:02:13.848Z,14.52
2019-04-05T15:04:43.734Z,14.77
2019-04-05T15:07:13.676Z,14.52
2019-04-05T15:09:43.520Z,14.01
2019-04-05T15:12:13.454Z,14.67
2019-04-05T15:14:43.329Z,14.56
2019-04-05T15:17:13.376Z,13.70
2019-04-05T15:19:43.163Z,13.51
2019-04-05T15:22:13.069Z,13.66
2019-04-05T15:24:44.595Z,14.01
2019-04-05T15:27:14.592Z,13.51
2019-04-05T15:29:44.596Z,13.53
2019-04-05T15:32:14.446Z,13.76
2019-04-05T15:34:44.301Z,14.15
2019-04-05T15:37:15.978Z,14.91
2019-04-05T15:39:45.878Z,14.44
2019-04-05T15:42:15.654Z,14.11
2019-04-05T15:44:45.524Z,13.76
2019-04-05T15:47:15.456Z,13.93
2019-04-05T15:49:45.400Z,14.25
2019-04-05T15:52:19.156Z,13.91
2019-04-05T15:54:46.617Z,13.45
2019-04-05T15:57:16.471Z,12.93
2019-04-05T15:59:46.127Z,12.72
2019-04-05T16:02:16.153Z,12.72
2019-04-05T16:04:46.001Z,12.83
2019-04-05T16:07:16.206Z,12.61
2019-04-05T16:09:45.814Z,12.17
2019-04-05T16:12:15.658Z,12.04
2019-04-05T16:14:46.895Z,11.76
2019-04-05T16:17:16.590Z,11.37
2019-04-05T16:19:46.427Z,11.04
2019-04-05T16:22:16.220Z,10.94
2019-04-05T16:24:46.133Z,10.78
2019-04-05T16:27:15.925Z,10.61
2019-04-05T16:29:45.717Z,10.46
2019-04-05T16:32:15.558Z,10.30
2019-04-05T16:34:45.502Z,10.24
2019-04-05T16:37:15.381Z,10.09
2019-04-05T16:39:46.475Z,10.01
2019-04-05T16:42:17.357Z,9.84
2019-04-05T16:44:47.083Z,9.82
2019-04-05T16:47:17.093Z,9.76
2019-04-05T16:49:46.727Z,9.79
2019-04-05T16:52:18.086Z,9.78
2019-04-05T16:54:48.009Z,9.72
2019-04-05T16:57:17.812Z,9.63
2019-04-05T16:59:47.688Z,9.67
2019-04-05T17:02:17.652Z,9.71
2019-04-05T17:04:47.454Z,9.62
2019-04-05T17:07:17.466Z,9.62
2019-04-05T17:09:47.277Z,9.60
2019-04-05T17:12:17.363Z,9.58
2019-04-05T17:14:47.346Z,9.54
2019-04-05T17:17:17.257Z,9.49
2019-04-05T17:19:46.999Z,9.46
2019-04-05T17:22:16.890Z,9.50
2019-04-05T17:24:46.695Z,9.45
2019-04-05T17:30:52.940Z,9.50
2019-04-05T17:34:05.401Z,9.51
2019-04-05T17:37:49.048Z,9.48
2019-04-05T17:40:20.762Z,9.50
2019-04-05T17:43:22.135Z,9.44
2019-04-05T17:46:17.692Z,9.45
2019-04-05T17:50:01.011Z,9.46
2019-04-05T17:53:31.290Z,9.49
2019-04-05T17:56:28.193Z,9.60
2019-04-05T18:02:11.871Z,9.76
2019-04-05T18:04:42.942Z,9.74
2019-04-05T18:07:12.850Z,9.63
2019-04-05T18:09:42.770Z,9.68
2019-04-05T18:12:12.812Z,9.71
2019-04-05T18:14:42.800Z,9.68
2019-04-05T18:17:13.216Z,9.62
2019-04-05T18:19:43.233Z,9.70
2019-04-05T18:22:13.242Z,9.60
2019-04-05T18:24:43.203Z,9.69
2019-04-05T18:27:12.958Z,9.72
2019-04-05T18:29:42.643Z,9.76
2019-04-05T18:32:12.878Z,9.73
2019-04-05T18:34:42.784Z,9.61
2019-04-05T18:37:12.668Z,9.78
2019-04-05T18:39:42.490Z,9.85
2019-04-05T18:42:12.525Z,9.83
2019-04-05T18:44:43.684Z,9.85
2019-04-05T18:47:13.731Z,9.82
2019-04-05T18:49:43.693Z,9.80
2019-04-05T18:52:13.684Z,9.89
2019-04-05T18:54:43.725Z,10.03
2019-04-05T18:57:14.305Z,10.03
2019-04-05T18:59:44.439Z,10.06
2019-04-05T19:02:14.234Z,9.96
2019-04-05T19:04:45.386Z,10.05
2019-04-05T19:07:15.305Z,10.06
2019-04-05T19:09:45.077Z,10.08
2019-04-05T19:12:15.084Z,10.18
2019-04-05T19:14:44.806Z,10.17
2019-04-05T19:17:23.831Z,10.14
2019-04-05T19:19:46.084Z,10.09
2019-04-05T19:22:15.909Z,10.11
2019-04-05T19:24:47.433Z,10.00
2019-04-05T19:27:17.147Z,10.08
2019-04-05T19:29:46.889Z,10.13
2019-04-05T19:49:59.718Z,10.14
2019-04-05T19:52:29.635Z,10.12
2019-04-05T19:54:59.593Z,10.06
2019-04-05T19:57:29.474Z,10.10
2019-04-05T19:59:59.395Z,10.12
2019-04-05T20:02:29.235Z,10.12
2019-04-05T20:04:59.123Z,10.09
2019-04-05T20:07:28.922Z,10.01
2019-04-05T20:10:00.085Z,9.99
2019-04-05T20:12:30.113Z,10.00
2019-04-05T20:14:59.914Z,9.92
2019-04-05T20:17:29.683Z,9.94
2019-04-05T20:19:59.423Z,9.95
2019-04-05T20:22:29.259Z,9.96
2019-04-05T20:24:59.014Z,10.02
2019-04-05T20:27:28.998Z,9.98
2019-04-05T20:29:58.899Z,10.09
2019-04-05T20:32:29.991Z,10.12
2019-04-05T20:34:59.663Z,10.12
2019-04-05T20:37:29.629Z,10.14
2019-04-05T20:39:59.488Z,10.12
2019-04-05T20:42:29.530Z,10.05
2019-04-05T20:44:59.387Z,10.03
2019-04-05T20:47:29.240Z,10.04
2019-04-05T20:50:00.270Z,9.93
2019-04-05T20:52:30.365Z,9.99
2019-04-05T20:55:00.102Z,9.92
2019-04-05T20:57:29.913Z,9.91
2019-04-05T20:59:59.810Z,9.91
2019-04-05T21:02:29.563Z,9.95
2019-04-05T21:04:59.455Z,9.94
2019-04-05T21:07:29.456Z,10.01
2019-04-05T21:09:59.424Z,9.99
2019-04-05T21:12:29.215Z,10.00
2019-04-05T21:14:59.213Z,10.02
2019-04-05T21:17:29.043Z,10.10
2019-04-05T21:19:58.997Z,10.06
2019-04-05T21:22:29.053Z,10.08
2019-04-05T21:24:58.996Z,10.03
2019-04-05T21:27:28.825Z,9.98
2019-04-05T21:29:58.683Z,9.95
2019-04-05T21:32:28.569Z,9.99
2019-04-05T21:34:58.470Z,10.04
2019-04-05T21:37:29.437Z,10.07
2019-04-05T21:39:59.334Z,10.02
2019-04-05T21:42:29.253Z,10.01
2019-04-05T21:44:59.202Z,10.02
2019-04-05T21:47:29.145Z,10.03
2019-04-05T21:49:59.016Z,10.01
2019-04-05T21:52:28.912Z,10.02
2019-04-05T21:54:58.864Z,10.06
2019-04-05T21:57:28.865Z,10.08
2019-04-05T21:59:58.654Z,10.11
2019-04-05T22:02:29.430Z,10.03
2019-04-05T22:05:01.226Z,10.09
2019-04-05T22:07:30.783Z,9.99
2019-04-05T22:10:00.492Z,10.02
2019-04-05T22:12:30.342Z,9.96
2019-04-05T22:15:00.126Z,10.06
2019-04-05T22:17:29.913Z,9.98
2019-04-05T22:19:59.781Z,10.00
2019-04-05T22:22:29.762Z,10.02
2019-04-05T22:24:59.792Z,10.03
2019-04-05T22:27:29.854Z,9.99
2019-04-05T22:29:59.717Z,9.91
2019-04-05T22:32:29.615Z,9.94
2019-04-05T22:34:59.582Z,9.95
2019-04-05T22:37:29.437Z,9.92
2019-04-05T22:39:59.071Z,9.83
2019-04-05T22:42:28.895Z,9.85
2019-04-05T22:44:58.845Z,9.80
2019-04-05T22:47:28.635Z,9.80
2019-04-05T22:49:58.422Z,9.73
2019-04-05T22:52:28.342Z,9.72
2019-04-05T22:54:58.260Z,9.70
2019-04-05T22:57:28.161Z,9.60
2019-04-05T22:59:57.902Z,9.73
2019-04-05T23:02:27.950Z,9.75
2019-04-05T23:04:57.735Z,9.75
2019-04-05T23:07:27.666Z,9.79
2019-04-05T23:09:58.714Z,9.76
2019-04-05T23:12:28.591Z,9.75
2019-04-05T23:14:58.316Z,9.77
2019-04-05T23:17:28.190Z,9.68
2019-04-05T23:19:58.139Z,9.67
2019-04-05T23:22:27.974Z,9.61
2019-04-05T23:24:57.723Z,9.56
2019-04-05T23:27:27.570Z,9.59
2019-04-05T23:29:57.738Z,9.57
2019-04-05T23:32:27.465Z,9.59
2019-04-05T23:34:57.208Z,9.60
2019-04-05T23:37:27.091Z,9.60
2019-04-05T23:39:56.845Z,9.66
2019-04-05T23:42:26.702Z,9.63
2019-04-05T23:44:56.619Z,9.63
2019-04-05T23:47:26.454Z,9.61
2019-04-05T23:49:56.339Z,9.65
2019-04-05T23:52:26.154Z,9.61
2019-04-05T23:54:56.006Z,9.65
2019-04-05T23:57:25.882Z,9.68
2019-04-05T23:59:55.813Z,9.71
